createdAt,value
2019-01-08T00:00:03.593Z,86.70
2019-01-08T00:02:36.067Z,86.80
2019-01-08T00:05:09.377Z,87.00
2019-01-08T00:07:42.600Z,87.00
2019-01-08T00:10:16.419Z,87.00
2019-01-08T00:12:50.168Z,87.40
2019-01-08T00:15:24.027Z,87.50
2019-01-08T00:17:57.618Z,87.50
2019-01-08T00:20:30.639Z,87.30
2019-01-08T00:23:03.657Z,87.60
2019-01-08T00:25:37.218Z,87.40
2019-01-08T00:28:10.778Z,87.30
2019-01-08T00:30:44.718Z,86.90
2019-01-08T00:33:18.017Z,86.70
2019-01-08T00:35:50.428Z,86.70
2019-01-08T00:38:23.777Z,86.70
2019-01-08T00:40:56.658Z,86.60
2019-01-08T00:43:30.187Z,86.70
2019-01-08T00:46:03.297Z,86.60
2019-01-08T00:48:36.817Z,86.70
2019-01-08T00:51:09.088Z,86.50
2019-01-08T00:53:42.268Z,86.30
2019-01-08T00:56:15.288Z,86.30
2019-01-08T00:58:51.636Z,85.90
2019-01-08T01:01:23.518Z,85.50
2019-01-08T01:03:56.816Z,85.80
2019-01-08T01:06:29.957Z,85.70
2019-01-08T01:09:03.519Z,85.70
2019-01-08T01:11:36.798Z,85.90
2019-01-08T01:14:10.362Z,85.90
2019-01-08T01:16:44.588Z,86.00
2019-01-08T01:19:17.216Z,85.80
2019-01-08T01:21:50.820Z,85.80
2019-01-08T01:24:23.117Z,85.70
2019-01-08T01:26:55.777Z,85.60
2019-01-08T01:29:28.648Z,85.30
2019-01-08T01:32:02.228Z,84.90
2019-01-08T01:34:36.289Z,85.20
2019-01-08T01:37:09.099Z,85.20
2019-01-08T01:39:41.577Z,85.40
2019-01-08T01:42:14.908Z,85.40
2019-01-08T01:44:47.897Z,85.60
2019-01-08T01:47:20.449Z,85.70
2019-01-08T01:49:52.729Z,85.50
2019-01-08T01:52:26.030Z,86.70
2019-01-08T01:54:59.098Z,85.90
2019-01-08T01:57:32.700Z,86.20
2019-01-08T02:00:05.667Z,86.10
2019-01-08T02:02:39.297Z,86.10
2019-01-08T02:05:12.089Z,86.20
2019-01-08T02:07:44.698Z,86.30
2019-01-08T02:10:17.740Z,86.50
2019-01-08T02:12:50.717Z,86.70
2019-01-08T02:15:24.297Z,86.40
2019-01-08T02:17:57.230Z,86.00
2019-01-08T02:20:30.899Z,85.90
2019-01-08T02:23:04.707Z,86.10
2019-01-08T02:25:37.018Z,86.20
2019-01-08T02:28:09.878Z,86.30
2019-01-08T02:30:43.377Z,86.30
2019-01-08T02:33:16.578Z,86.00
2019-01-08T02:35:49.859Z,86.20
2019-01-08T02:38:23.487Z,86.30
2019-01-08T02:40:55.937Z,86.20
2019-01-08T02:43:28.708Z,85.90
2019-01-08T02:46:02.063Z,85.80
2019-01-08T02:48:35.398Z,86.20
2019-01-08T02:51:09.027Z,86.60
2019-01-08T02:53:41.829Z,86.80
2019-01-08T02:56:14.557Z,86.90
2019-01-08T02:58:47.038Z,87.20
2019-01-08T03:01:20.128Z,86.90
2019-01-08T03:03:54.287Z,86.80
2019-01-08T03:06:27.229Z,86.70
2019-01-08T03:09:00.138Z,86.70
2019-01-08T03:11:33.328Z,87.10
2019-01-08T03:14:06.017Z,87.10
2019-01-08T03:16:39.513Z,87.00
2019-01-08T03:19:12.677Z,87.10
2019-01-08T03:21:46.277Z,87.30
2019-01-08T03:24:18.598Z,87.20
2019-01-08T03:26:51.217Z,87.20
2019-01-08T03:29:24.448Z,87.30
2019-01-08T03:31:57.738Z,87.70
2019-01-08T03:34:31.028Z,87.80
2019-01-08T03:37:05.108Z,88.00
2019-01-08T03:39:38.798Z,88.10
2019-01-08T03:42:11.757Z,88.20
2019-01-08T03:44:44.630Z,87.90
2019-01-08T03:47:17.378Z,87.80
2019-01-08T03:49:50.458Z,87.90
2019-01-08T03:52:24.187Z,87.70
2019-01-08T03:54:57.570Z,87.90
2019-01-08T03:57:31.057Z,88.20
2019-01-08T04:00:03.937Z,88.20
2019-01-08T04:02:36.727Z,88.00
2019-01-08T04:05:09.408Z,88.30
2019-01-08T04:07:42.217Z,88.10
2019-01-08T04:10:13.588Z,88.20
2019-01-08T04:12:47.239Z,88.30
2019-01-08T04:15:20.837Z,88.30
2019-01-08T04:17:53.979Z,88.10
2019-01-08T04:20:27.368Z,88.60
2019-01-08T04:23:00.198Z,88.60
2019-01-08T04:25:32.818Z,88.50
2019-01-08T04:28:05.767Z,88.70
2019-01-08T04:30:39.307Z,88.80
2019-01-08T04:33:12.218Z,88.80
2019-01-08T04:35:44.937Z,89.00
2019-01-08T04:38:17.550Z,88.60
2019-01-08T04:40:50.399Z,88.60
2019-01-08T04:43:23.891Z,88.30
2019-01-08T04:45:57.017Z,88.70
2019-01-08T04:48:29.148Z,88.40
2019-01-08T04:51:02.338Z,88.60
2019-01-08T04:53:35.499Z,88.70
2019-01-08T04:56:08.830Z,88.70
2019-01-08T04:58:42.187Z,88.40
2019-01-08T05:01:14.928Z,88.70
2019-01-08T05:03:48.077Z,88.60
2019-01-08T05:06:20.668Z,88.60
2019-01-08T05:08:53.677Z,88.20
2019-01-08T05:11:26.807Z,88.20
2019-01-08T05:14:00.197Z,88.40
2019-01-08T05:16:33.817Z,88.40
2019-01-08T05:19:06.878Z,88.40
2019-01-08T05:21:40.077Z,88.40
2019-01-08T05:24:13.618Z,88.50
2019-01-08T05:26:46.688Z,88.50
2019-01-08T05:29:19.758Z,88.40
2019-01-08T05:31:52.387Z,88.20
2019-01-08T05:34:25.398Z,88.50
2019-01-08T05:36:59.221Z,88.60
2019-01-08T05:39:32.707Z,88.60
2019-01-08T05:42:05.999Z,88.50
2019-01-08T05:44:39.527Z,88.40
2019-01-08T05:47:12.098Z,88.90
2019-01-08T05:49:44.868Z,88.80
2019-01-08T05:52:18.547Z,89.00
2019-01-08T05:54:51.788Z,88.80
2019-01-08T05:57:24.897Z,88.70
2019-01-08T05:59:58.097Z,88.70
2019-01-08T06:02:30.967Z,89.10
2019-01-08T06:05:03.708Z,88.90
2019-01-08T06:07:37.367Z,89.20
2019-01-08T06:10:11.168Z,89.10
2019-01-08T06:12:44.037Z,89.20
2019-01-08T06:15:17.458Z,88.90
2019-01-08T06:17:51.528Z,89.00
2019-01-08T06:20:25.087Z,89.60
2019-01-08T06:22:57.377Z,89.70
2019-01-08T06:25:30.338Z,89.50
2019-01-08T06:28:03.777Z,90.00
2019-01-08T06:30:36.706Z,89.90
2019-01-08T06:33:08.978Z,90.00
2019-01-08T06:35:41.717Z,89.60
2019-01-08T06:38:15.444Z,89.40
2019-01-08T06:40:48.298Z,89.90
2019-01-08T06:43:20.628Z,90.00
2019-01-08T06:45:53.368Z,90.20
2019-01-08T06:48:26.527Z,90.00
2019-01-08T06:51:00.147Z,90.10
2019-01-08T06:53:32.791Z,90.00
2019-01-08T06:56:05.418Z,90.10
2019-01-08T06:58:38.727Z,91.30
2019-01-08T07:01:11.958Z,94.20
2019-01-08T07:03:44.087Z,92.70
2019-01-08T07:06:16.818Z,91.40
2019-01-08T07:08:50.488Z,90.30
2019-01-08T07:11:25.709Z,90.10
2019-01-08T07:13:59.058Z,90.00
2019-01-08T07:16:32.167Z,89.60
2019-01-08T07:19:05.578Z,89.70
2019-01-08T07:21:38.860Z,90.00
2019-01-08T07:24:12.457Z,90.00
2019-01-08T07:26:45.927Z,90.20
2019-01-08T07:29:18.089Z,90.10
2019-01-08T07:31:51.161Z,90.10
2019-01-08T07:34:24.608Z,90.20
2019-01-08T07:36:58.018Z,90.20
2019-01-08T07:39:31.469Z,90.10
2019-01-08T07:42:04.788Z,90.20
2019-01-08T07:44:37.838Z,90.30
2019-01-08T07:47:10.687Z,90.30
2019-01-08T07:49:43.338Z,90.30
2019-01-08T07:52:17.278Z,90.30
2019-01-08T07:54:50.498Z,90.40
2019-01-08T07:57:23.728Z,90.50
2019-01-08T07:59:57.117Z,90.60
2019-01-08T08:02:29.397Z,90.30
2019-01-08T08:05:02.517Z,90.40
2019-01-08T08:07:35.457Z,90.30
2019-01-08T08:10:09.217Z,90.50
2019-01-08T08:12:41.828Z,90.40
2019-01-08T08:15:14.849Z,90.40
2019-01-08T08:17:48.191Z,90.40
2019-01-08T08:20:21.847Z,90.60
2019-01-08T08:22:55.417Z,90.50
2019-01-08T08:25:27.748Z,90.70
2019-01-08T08:28:00.998Z,90.80
2019-01-08T08:30:34.387Z,90.60
2019-01-08T08:33:07.902Z,90.70
2019-01-08T08:35:41.097Z,90.60
2019-01-08T08:38:14.257Z,90.60
2019-01-08T08:40:47.878Z,90.50
2019-01-08T08:43:20.562Z,90.60
2019-01-08T08:45:53.768Z,90.80
2019-01-08T08:48:26.777Z,90.90
2019-01-08T08:50:59.833Z,90.70
2019-01-08T08:53:32.531Z,90.70
2019-01-08T08:56:05.017Z,90.80
2019-01-08T08:58:38.388Z,90.80
2019-01-08T09:01:11.458Z,90.60
2019-01-08T09:03:44.984Z,90.60
2019-01-08T09:06:18.456Z,90.80
2019-01-08T09:08:51.828Z,90.70
2019-01-08T09:11:24.419Z,90.70
2019-01-08T09:13:57.151Z,90.80
2019-01-08T09:16:30.808Z,90.70
2019-01-08T09:19:04.298Z,90.60
2019-01-08T09:21:37.578Z,90.90
2019-01-08T09:24:11.168Z,90.60
2019-01-08T09:26:44.222Z,90.60
2019-01-08T09:29:16.851Z,90.60
2019-01-08T09:31:50.058Z,90.40
2019-01-08T09:34:24.078Z,90.50
2019-01-08T09:36:57.286Z,90.60
2019-01-08T09:39:29.858Z,90.80
2019-01-08T09:42:02.399Z,90.80
2019-01-08T09:44:36.608Z,90.80
2019-01-08T09:47:11.858Z,90.80
2019-01-08T09:49:44.928Z,90.90
2019-01-08T09:52:17.941Z,91.00
2019-01-08T09:54:50.959Z,91.00
2019-01-08T09:57:23.988Z,90.90
2019-01-08T09:59:57.007Z,91.00
2019-01-08T10:02:30.537Z,91.10
2019-01-08T10:05:04.147Z,91.20
2019-01-08T10:07:36.467Z,91.30
2019-01-08T10:10:09.947Z,91.20
2019-01-08T10:12:43.185Z,91.20
2019-01-08T10:15:17.288Z,91.00
2019-01-08T10:17:51.057Z,91.20
2019-01-08T10:20:25.149Z,91.60
2019-01-08T10:22:58.687Z,91.40
2019-01-08T10:25:32.468Z,91.40
2019-01-08T10:28:06.107Z,91.40
2019-01-08T10:30:39.897Z,91.20
2019-01-08T10:33:13.258Z,91.30
2019-01-08T10:35:45.628Z,91.40
2019-01-08T10:38:18.468Z,91.20
2019-01-08T10:40:52.097Z,91.20
2019-01-08T10:43:25.576Z,91.40
2019-01-08T10:45:58.928Z,91.30
2019-01-08T10:48:31.309Z,91.20
2019-01-08T10:51:04.067Z,91.10
2019-01-08T10:53:37.210Z,91.00
2019-01-08T10:56:11.348Z,91.10
2019-01-08T10:58:44.923Z,91.30
2019-01-08T11:01:18.567Z,91.00
2019-01-08T11:03:52.097Z,91.10
2019-01-08T11:06:24.457Z,91.00
2019-01-08T11:08:57.358Z,91.00
2019-01-08T11:11:30.828Z,91.00
2019-01-08T11:14:04.147Z,91.10
2019-01-08T11:16:36.887Z,91.10
2019-01-08T11:19:10.558Z,91.10
2019-01-08T11:21:43.288Z,90.90
2019-01-08T11:24:16.839Z,90.90
2019-01-08T11:26:50.168Z,91.30
2019-01-08T11:29:23.598Z,91.00
2019-01-08T11:31:57.088Z,90.80
2019-01-08T11:34:29.938Z,90.80
2019-01-08T11:37:03.179Z,90.70
2019-01-08T11:39:36.347Z,90.50
2019-01-08T11:42:10.427Z,90.50
2019-01-08T11:44:43.576Z,90.60
2019-01-08T11:47:16.578Z,90.60
2019-01-08T11:49:49.538Z,90.00
2019-01-08T11:52:22.628Z,90.30
2019-01-08T11:54:56.398Z,90.10
2019-01-08T11:57:29.518Z,90.10
2019-01-08T12:00:03.518Z,89.80
2019-01-08T12:02:37.188Z,89.80
2019-01-08T12:05:10.087Z,89.20
2019-01-08T12:07:42.638Z,89.10
2019-01-08T12:10:15.418Z,89.30
2019-01-08T12:12:48.398Z,88.60
2019-01-08T12:15:21.496Z,88.40
2019-01-08T12:17:55.038Z,88.30
2019-01-08T12:20:28.968Z,88.70
2019-01-08T12:23:02.249Z,88.30
2019-01-08T12:25:35.548Z,88.10
2019-01-08T12:28:07.918Z,88.30
2019-01-08T12:30:41.038Z,87.90
2019-01-08T12:33:14.258Z,87.70
2019-01-08T12:35:47.638Z,87.10
2019-01-08T12:38:20.478Z,86.60
2019-01-08T12:40:53.357Z,87.00
2019-01-08T12:43:26.308Z,87.10
2019-01-08T12:45:59.350Z,87.50
2019-01-08T12:48:33.317Z,86.90
2019-01-08T12:51:07.218Z,86.80
2019-01-08T12:53:38.218Z,87.00
2019-01-08T12:56:11.958Z,87.40
2019-01-08T12:58:45.828Z,87.10
2019-01-08T13:01:21.007Z,87.20
2019-01-08T13:03:54.258Z,87.10
2019-01-08T13:06:27.881Z,87.10
2019-01-08T13:09:01.718Z,87.10
2019-01-08T13:11:35.568Z,86.30
2019-01-08T13:14:08.598Z,86.50
2019-01-08T13:16:41.168Z,86.50
2019-01-08T13:19:14.878Z,86.90
2019-01-08T13:21:47.709Z,87.10
2019-01-08T13:24:21.068Z,86.90
2019-01-08T13:26:53.800Z,87.10
2019-01-08T13:29:27.368Z,86.50
2019-01-08T13:32:00.748Z,86.60
2019-01-08T13:34:34.898Z,86.80
2019-01-08T13:37:08.307Z,86.40
2019-01-08T13:39:42.438Z,86.10
2019-01-08T13:42:15.697Z,85.90
2019-01-08T13:44:49.788Z,85.70
2019-01-08T13:47:23.159Z,86.10
2019-01-08T13:49:56.478Z,86.60
2019-01-08T13:52:28.878Z,86.00
2019-01-08T13:55:02.777Z,86.00
2019-01-08T13:57:36.417Z,86.10
2019-01-08T14:00:10.348Z,86.30
2019-01-08T14:02:43.377Z,86.50
2019-01-08T14:05:17.018Z,86.70
2019-01-08T14:07:50.247Z,86.70
2019-01-08T14:10:24.139Z,86.70
2019-01-08T14:12:57.948Z,87.00
2019-01-08T14:15:31.479Z,86.90
2019-01-08T14:18:04.368Z,86.60
2019-01-08T14:20:37.558Z,87.00
2019-01-08T14:23:10.577Z,87.00
2019-01-08T14:25:44.047Z,86.80
2019-01-08T14:28:17.608Z,86.00
2019-01-08T14:30:55.158Z,85.50
2019-01-08T14:33:28.376Z,86.00
2019-01-08T14:36:01.299Z,86.10
2019-01-08T14:38:34.348Z,85.60
2019-01-08T14:41:06.847Z,86.20
2019-01-08T14:43:40.005Z,85.70
2019-01-08T14:46:13.228Z,85.60
2019-01-08T14:48:46.436Z,85.50
2019-01-08T14:51:38.334Z,85.30
2019-01-08T14:54:31.271Z,84.90
2019-01-08T14:57:03.564Z,84.70
2019-01-08T14:59:36.938Z,85.30
2019-01-08T15:02:10.108Z,84.30
2019-01-08T15:04:43.697Z,84.80
2019-01-08T15:07:17.558Z,85.10
2019-01-08T15:09:50.947Z,85.00
2019-01-08T15:12:24.238Z,84.50
2019-01-08T15:14:57.847Z,84.00
2019-01-08T15:17:30.166Z,83.60
2019-01-08T15:20:03.488Z,84.00
2019-01-08T15:22:36.868Z,83.40
2019-01-08T15:25:09.567Z,83.90
2019-01-08T15:27:42.999Z,83.50
2019-01-08T15:30:15.459Z,83.50
2019-01-08T15:32:48.738Z,83.00
2019-01-08T15:35:21.768Z,84.10
2019-01-08T15:37:55.377Z,83.70
2019-01-08T15:40:28.517Z,83.00
2019-01-08T15:43:22.709Z,82.90
2019-01-08T15:45:55.738Z,83.30
2019-01-08T15:48:29.512Z,82.80
2019-01-08T15:51:00.558Z,82.90
2019-01-08T15:53:34.268Z,82.70
2019-01-08T15:56:07.957Z,81.60
2019-01-08T15:58:39.397Z,81.90
2019-01-08T16:01:12.977Z,82.60
2019-01-08T16:03:54.369Z,82.90
2019-01-08T16:06:28.008Z,83.60
2019-01-08T16:09:01.428Z,84.40
2019-01-08T16:11:35.258Z,84.60
2019-01-08T16:14:49.411Z,84.60
2019-01-08T16:17:20.837Z,84.30
2019-01-08T16:19:53.377Z,82.00
2019-01-08T16:22:46.828Z,81.90
2019-01-08T16:25:46.823Z,80.60
2019-01-08T16:28:45.035Z,81.50
2019-01-08T16:31:23.318Z,81.40
2019-01-08T16:33:56.518Z,81.00
2019-01-08T16:36:29.357Z,80.80
2019-01-08T16:39:02.928Z,80.80
2019-01-08T16:41:36.038Z,80.80
2019-01-08T16:44:09.829Z,80.30
2019-01-08T16:46:42.657Z,80.00
2019-01-08T16:49:16.458Z,80.00
2019-01-08T16:51:49.818Z,80.50
2019-01-08T16:54:22.596Z,79.60
2019-01-08T16:56:55.677Z,79.90
2019-01-08T16:59:29.297Z,79.40
2019-01-08T17:02:03.766Z,79.20
2019-01-08T17:04:38.038Z,79.00
2019-01-08T17:07:11.599Z,78.60
2019-01-08T17:09:45.738Z,79.10
2019-01-08T17:12:19.509Z,79.80
2019-01-08T17:14:52.557Z,79.80
2019-01-08T17:17:26.057Z,80.00
2019-01-08T17:19:59.858Z,80.50
2019-01-08T17:22:33.448Z,80.20
2019-01-08T17:25:06.029Z,80.60
2019-01-08T17:27:39.598Z,79.40
2019-01-08T17:30:14.058Z,78.40
2019-01-08T17:32:47.569Z,77.50
2019-01-08T17:35:21.133Z,77.90
2019-01-08T17:37:55.189Z,78.20
2019-01-08T17:40:28.869Z,77.10
2019-01-08T17:43:02.497Z,77.90
2019-01-08T17:45:36.098Z,77.70
2019-01-08T17:48:09.696Z,77.40
2019-01-08T17:50:44.017Z,76.30
2019-01-08T17:53:17.949Z,77.40
2019-01-08T17:55:51.217Z,76.90
2019-01-08T17:58:36.889Z,76.80
2019-01-08T18:01:12.430Z,76.60
2019-01-08T18:03:46.717Z,76.90
2019-01-08T18:06:19.839Z,76.90
2019-01-08T18:08:53.008Z,77.20
2019-01-08T18:11:26.428Z,77.10
2019-01-08T18:14:00.561Z,77.40
2019-01-08T18:16:33.840Z,76.90
2019-01-08T18:19:07.651Z,77.90
2019-01-08T18:21:41.396Z,77.50
2019-01-08T18:24:14.898Z,77.00
2019-01-08T18:26:47.449Z,77.30
2019-01-08T18:29:20.022Z,77.80
2019-01-08T18:31:54.313Z,78.00
2019-01-08T18:34:27.497Z,77.90
2019-01-08T18:37:01.077Z,77.00
2019-01-08T18:39:33.497Z,77.30
2019-01-08T18:42:06.098Z,77.30
2019-01-08T18:44:39.137Z,77.60
2019-01-08T18:47:12.938Z,77.50
2019-01-08T18:49:47.249Z,77.50
2019-01-08T18:52:20.548Z,77.30
2019-01-08T18:54:54.307Z,77.30
2019-01-08T18:57:27.658Z,76.60
2019-01-08T19:00:01.158Z,76.60
2019-01-08T19:02:33.886Z,77.10
2019-01-08T19:05:07.563Z,77.30
2019-01-08T19:07:41.097Z,77.30
2019-01-08T19:10:16.497Z,77.20
2019-01-08T19:12:50.009Z,77.90
2019-01-08T19:15:22.909Z,77.90
2019-01-08T19:17:56.098Z,78.60
2019-01-08T19:20:30.198Z,78.00
2019-01-08T19:23:02.199Z,78.40
2019-01-08T19:25:34.591Z,77.40
2019-01-08T19:28:08.287Z,77.80
2019-01-08T19:30:40.989Z,77.10
2019-01-08T19:33:14.530Z,77.50
2019-01-08T19:35:49.019Z,77.70
2019-01-08T19:38:23.285Z,77.50
2019-01-08T19:40:57.309Z,76.90
2019-01-08T19:43:30.477Z,76.80
2019-01-08T19:46:04.050Z,76.90
2019-01-08T19:48:37.436Z,76.70
2019-01-08T19:51:11.016Z,76.80
2019-01-08T19:53:44.388Z,76.50
2019-01-08T19:56:17.678Z,76.50
2019-01-08T19:58:51.437Z,76.50
2019-01-08T20:01:25.109Z,76.50
2019-01-08T20:03:59.237Z,76.00
2019-01-08T20:06:36.058Z,75.90
2019-01-08T20:09:10.520Z,77.10
2019-01-08T20:11:44.497Z,76.60
2019-01-08T20:14:17.927Z,76.90
2019-01-08T20:16:51.617Z,76.90
2019-01-08T20:19:25.237Z,77.50
2019-01-08T20:21:58.798Z,77.80
2019-01-08T20:24:32.738Z,77.90
2019-01-08T20:27:06.629Z,77.60
2019-01-08T20:29:40.138Z,78.20
2019-01-08T20:32:14.369Z,78.30
2019-01-08T20:34:48.559Z,78.50
2019-01-08T20:37:21.428Z,78.30
2019-01-08T20:39:55.089Z,78.40
2019-01-08T20:42:29.038Z,78.20
2019-01-08T20:45:02.629Z,78.10
2019-01-08T20:47:37.386Z,78.70
2019-01-08T20:50:10.678Z,78.70
2019-01-08T20:52:43.778Z,78.60
2019-01-08T20:55:17.498Z,78.10
2019-01-08T20:57:50.518Z,78.40
2019-01-08T21:00:23.338Z,78.00
2019-01-08T21:02:56.189Z,77.50
2019-01-08T21:05:30.169Z,77.70
2019-01-08T21:08:03.217Z,77.80
2019-01-08T21:10:36.517Z,77.80
2019-01-08T21:13:09.897Z,77.30
2019-01-08T21:15:43.898Z,77.10
2019-01-08T21:18:17.518Z,77.40
2019-01-08T21:20:51.058Z,77.40
2019-01-08T21:23:24.947Z,77.30
2019-01-08T21:25:58.678Z,77.60
2019-01-08T21:28:32.363Z,77.30
2019-01-08T21:31:04.258Z,77.20
2019-01-08T21:33:37.299Z,77.20
2019-01-08T21:36:10.089Z,77.00
2019-01-08T21:38:44.353Z,77.00
2019-01-08T21:41:17.779Z,77.00
2019-01-08T21:43:50.638Z,76.70
2019-01-08T21:46:23.458Z,76.80
2019-01-08T21:48:56.759Z,77.10
2019-01-08T21:51:30.769Z,76.90
2019-01-08T21:54:04.031Z,77.10
2019-01-08T21:56:37.627Z,77.30
2019-01-08T21:59:11.469Z,77.30
2019-01-08T22:01:45.398Z,77.60
2019-01-08T22:04:18.428Z,77.40
2019-01-08T22:06:52.289Z,77.80
2019-01-08T22:09:25.818Z,77.60
2019-01-08T22:11:58.708Z,77.80
2019-01-08T22:14:32.238Z,77.80
2019-01-08T22:17:05.998Z,77.80
2019-01-08T22:19:40.079Z,77.80
2019-01-08T22:22:14.218Z,77.70
2019-01-08T22:24:48.077Z,77.10
2019-01-08T22:27:21.438Z,76.70
2019-01-08T22:29:54.768Z,77.40
2019-01-08T22:32:29.330Z,77.20
2019-01-08T22:35:02.915Z,77.30
2019-01-08T22:37:37.678Z,77.10
2019-01-08T22:40:11.758Z,77.30
2019-01-08T22:42:44.729Z,77.20
2019-01-08T22:45:18.707Z,77.50
2019-01-08T22:47:52.697Z,76.70
2019-01-08T22:50:25.420Z,77.40
2019-01-08T22:52:59.737Z,77.60
2019-01-08T22:55:32.318Z,77.90
2019-01-08T22:58:06.240Z,78.10
2019-01-08T23:00:53.638Z,78.10
2019-01-08T23:03:26.477Z,78.20
2019-01-08T23:05:59.450Z,78.20
2019-01-08T23:08:32.769Z,78.00
2019-01-08T23:11:06.210Z,78.00
2019-01-08T23:13:39.657Z,77.80
2019-01-08T23:16:13.311Z,78.00
2019-01-08T23:18:45.738Z,77.80
2019-01-08T23:21:18.238Z,77.90
2019-01-08T23:23:51.729Z,77.90
2019-01-08T23:26:24.711Z,78.30
2019-01-08T23:28:57.738Z,78.20
2019-01-08T23:31:30.278Z,78.20
2019-01-08T23:34:03.913Z,78.10
2019-01-08T23:36:37.247Z,78.50
2019-01-08T23:39:11.387Z,78.70
2019-01-08T23:41:44.328Z,78.50
2019-01-08T23:44:17.048Z,78.30
2019-01-08T23:46:51.618Z,78.30
2019-01-08T23:49:25.589Z,78.20
2019-01-08T23:52:06.258Z,78.00
2019-01-08T23:54:40.038Z,77.80
2019-01-08T23:57:14.678Z,77.80
2019-01-08T23:59:47.478Z,77.50
